createdAt,value
2023-02-23T00:01:55.908Z,99370.94
2023-02-23T00:04:24.253Z,99372.13
2023-02-23T00:06:52.460Z,99377.59
2023-02-23T00:09:25.315Z,99377.59
2023-02-23T00:11:54.674Z,99380.97
2023-02-23T00:14:27.439Z,99381.00
2023-02-23T00:16:55.957Z,99386.34
2023-02-23T00:19:25.057Z,99381.22
2023-02-23T00:21:53.732Z,99388.16
2023-02-23T00:24:21.272Z,99394.31
2023-02-23T00:26:51.390Z,99393.34
2023-02-23T00:29:23.607Z,99399.31
2023-02-23T00:31:52.462Z,99396.91
2023-02-23T00:34:21.371Z,99392.22
2023-02-23T00:36:56.807Z,99407.38
2023-02-23T00:39:29.452Z,99399.59
2023-02-23T00:42:03.020Z,99398.47
2023-02-23T00:44:30.441Z,99399.56
2023-02-23T00:46:57.562Z,99400.34
2023-02-23T00:49:24.755Z,99402.09
2023-02-23T00:51:55.124Z,99407.16
2023-02-23T00:54:22.254Z,99411.50
2023-02-23T00:56:50.120Z,99411.81
2023-02-23T00:59:17.466Z,99410.28
2023-02-23T01:01:45.211Z,99417.91
2023-02-23T01:04:13.441Z,99413.84
2023-02-23T01:06:41.826Z,99415.81
2023-02-23T01:09:11.870Z,99405.47
2023-02-23T01:11:39.068Z,99411.50
2023-02-23T01:14:06.271Z,99413.06
2023-02-23T01:16:35.489Z,99421.94
2023-02-23T01:19:04.624Z,99425.56
2023-02-23T01:21:34.500Z,99419.69
2023-02-23T01:24:02.461Z,99425.16
2023-02-23T01:26:35.226Z,99431.94
2023-02-23T01:29:14.780Z,99435.28
2023-02-23T01:31:46.824Z,99438.09
2023-02-23T01:34:19.249Z,99431.94
2023-02-23T01:36:46.363Z,99438.34
2023-02-23T01:39:20.115Z,99444.09
2023-02-23T01:41:47.410Z,99436.19
2023-02-23T01:44:15.296Z,99434.97
2023-02-23T01:46:45.537Z,99427.84
2023-02-23T01:49:20.285Z,99428.59
2023-02-23T01:51:52.819Z,99425.31
2023-02-23T01:54:24.492Z,99418.34
2023-02-23T01:56:58.538Z,99428.56
2023-02-23T01:59:55.022Z,99430.59
2023-02-23T02:02:33.653Z,99438.09
2023-02-23T02:05:05.391Z,99448.44
2023-02-23T02:07:35.440Z,99449.03
2023-02-23T02:10:11.990Z,99444.94
2023-02-23T02:12:44.348Z,99440.59
2023-02-23T02:15:17.634Z,99447.34
2023-02-23T02:18:09.622Z,99456.81
2023-02-23T02:21:12.529Z,99450.59
2023-02-23T02:23:40.226Z,99456.16
2023-02-23T02:26:31.806Z,99452.13
2023-02-23T02:29:01.884Z,99449.03
2023-02-23T02:31:55.193Z,99459.28
2023-02-23T02:34:22.695Z,99466.00
2023-02-23T02:37:14.556Z,99463.41
2023-02-23T02:39:48.024Z,99460.69
2023-02-23T02:42:15.343Z,99468.72
2023-02-23T02:44:59.278Z,99462.00
2023-02-23T02:47:34.574Z,99468.34
2023-02-23T02:50:12.579Z,99468.28
2023-02-23T02:53:04.199Z,99464.97
2023-02-23T02:55:34.899Z,99460.81
2023-02-23T02:58:07.896Z,99469.44
2023-02-23T03:00:56.144Z,99468.59
2023-02-23T03:03:53.352Z,99474.50
2023-02-23T03:06:43.827Z,99476.44
2023-02-23T03:09:32.552Z,99480.31
2023-02-23T03:12:44.754Z,99474.53
2023-02-23T03:15:48.022Z,99475.66
2023-02-23T03:18:58.443Z,99481.50
2023-02-23T03:21:52.674Z,99472.59
2023-02-23T03:25:06.675Z,99463.44
2023-02-23T03:28:05.942Z,99475.16
2023-02-23T03:31:06.783Z,99468.44
2023-02-23T03:34:14.475Z,99478.63
2023-02-23T03:37:11.766Z,99474.31
2023-02-23T03:40:10.679Z,99480.50
2023-02-23T03:42:59.450Z,99494.53
2023-02-23T03:45:46.446Z,99496.59
2023-02-23T03:48:35.626Z,99494.75
2023-02-23T03:51:26.040Z,99497.34
2023-02-23T03:54:39.058Z,99504.03
2023-02-23T03:57:28.591Z,99500.28
2023-02-23T04:00:20.392Z,99502.13
2023-02-23T04:03:10.828Z,99492.72
2023-02-23T04:06:00.376Z,99500.41
2023-02-23T04:08:52.971Z,99508.25
2023-02-23T04:11:52.192Z,99517.03
2023-02-23T04:14:29.458Z,99512.59
2023-02-23T04:16:58.396Z,99511.97
2023-02-23T04:19:29.550Z,99511.88
2023-02-23T04:21:56.688Z,99518.41
2023-02-23T04:24:23.806Z,99516.16
2023-02-23T04:26:50.848Z,99518.66
2023-02-23T04:29:17.888Z,99518.53
2023-02-23T04:31:45.050Z,99518.59
2023-02-23T04:34:12.105Z,99514.00
2023-02-23T04:36:39.100Z,99516.94
2023-02-23T04:39:06.075Z,99525.41
2023-02-23T04:41:33.197Z,99518.72
2023-02-23T04:44:00.249Z,99529.94
2023-02-23T04:46:27.232Z,99518.22
2023-02-23T04:48:54.166Z,99524.97
2023-02-23T04:51:21.242Z,99524.28
2023-02-23T04:53:48.465Z,99532.09
2023-02-23T04:56:15.525Z,99529.47
2023-02-23T04:58:42.721Z,99526.69
2023-02-23T05:01:10.160Z,99539.72
2023-02-23T05:03:37.176Z,99543.13
2023-02-23T05:06:04.448Z,99541.56
2023-02-23T05:08:31.512Z,99544.56
2023-02-23T05:10:58.567Z,99544.22
2023-02-23T05:13:25.655Z,99538.66
2023-02-23T05:15:57.747Z,99556.25
2023-02-23T05:18:26.489Z,99546.09
2023-02-23T05:20:54.266Z,99555.22
2023-02-23T05:23:21.977Z,99559.41
2023-02-23T05:25:49.014Z,99553.44
2023-02-23T05:28:16.063Z,99562.28
2023-02-23T05:30:43.771Z,99565.66
2023-02-23T05:33:10.969Z,99559.22
2023-02-23T05:35:41.470Z,99558.16
2023-02-23T05:38:08.498Z,99565.97
2023-02-23T05:40:36.788Z,99564.72
2023-02-23T05:43:03.799Z,99559.72
2023-02-23T05:45:31.080Z,99576.47
2023-02-23T05:47:58.204Z,99567.38
2023-02-23T05:50:26.034Z,99564.00
2023-02-23T05:52:54.005Z,99567.06
2023-02-23T05:55:20.960Z,99562.56
2023-02-23T05:57:48.017Z,99559.38
2023-02-23T06:00:15.304Z,99563.56
2023-02-23T06:02:42.464Z,99566.91
2023-02-23T06:05:10.851Z,99567.22
2023-02-23T06:07:38.089Z,99568.09
2023-02-23T06:10:05.969Z,99570.41
2023-02-23T06:12:33.054Z,99571.91
2023-02-23T06:15:00.066Z,99576.53
2023-02-23T06:17:27.155Z,99589.38
2023-02-23T06:19:54.447Z,99592.00
2023-02-23T06:22:21.506Z,99588.19
2023-02-23T06:24:49.800Z,99592.63
2023-02-23T06:27:16.804Z,99586.72
2023-02-23T06:29:43.937Z,99586.91
2023-02-23T06:32:10.999Z,99587.19
2023-02-23T06:34:45.339Z,99576.66
2023-02-23T06:37:12.533Z,99591.38
2023-02-23T06:39:39.605Z,99586.63
2023-02-23T06:42:06.657Z,99585.13
2023-02-23T06:44:35.611Z,99593.19
2023-02-23T06:47:05.901Z,99594.78
2023-02-23T06:49:33.354Z,99597.47
2023-02-23T06:52:00.596Z,99593.53
2023-02-23T06:54:27.558Z,99599.91
2023-02-23T06:56:55.846Z,99600.41
2023-02-23T06:59:24.408Z,99592.47
2023-02-23T07:01:51.814Z,99592.63
2023-02-23T07:04:18.934Z,99604.41
2023-02-23T07:06:45.904Z,99598.75
2023-02-23T07:09:13.026Z,99598.28
2023-02-23T07:11:41.808Z,99603.66
2023-02-23T07:14:15.307Z,99604.44
2023-02-23T07:16:45.361Z,99605.34
2023-02-23T07:19:12.437Z,99604.56
2023-02-23T07:21:39.429Z,99604.09
2023-02-23T07:24:06.757Z,99609.88
2023-02-23T07:26:33.863Z,99611.97
2023-02-23T07:29:01.915Z,99616.19
2023-02-23T07:31:29.454Z,99617.66
2023-02-23T07:33:56.742Z,99626.25
2023-02-23T07:36:24.765Z,99625.50
2023-02-23T07:38:51.877Z,99631.16
2023-02-23T07:41:19.333Z,99633.41
2023-02-23T07:43:46.697Z,99626.75
2023-02-23T07:46:15.611Z,99636.88
2023-02-23T07:48:45.070Z,99639.66
2023-02-23T07:51:15.974Z,99640.03
2023-02-23T07:53:44.410Z,99624.50
2023-02-23T07:56:12.545Z,99633.44
2023-02-23T07:58:41.824Z,99623.66
2023-02-23T08:01:10.180Z,99620.16
2023-02-23T08:03:37.323Z,99620.97
2023-02-23T08:06:04.616Z,99617.63
2023-02-23T08:08:31.796Z,99611.25
2023-02-23T08:11:03.572Z,99617.75
2023-02-23T08:13:31.548Z,99625.47
2023-02-23T08:15:59.614Z,99614.53
2023-02-23T08:18:27.841Z,99605.09
2023-02-23T08:21:02.189Z,99611.88
2023-02-23T08:23:30.686Z,99609.69
2023-02-23T08:25:59.765Z,99613.34
2023-02-23T08:28:27.960Z,99611.53
2023-02-23T08:30:55.361Z,99607.22
2023-02-23T08:33:22.595Z,99602.22
2023-02-23T08:35:49.626Z,99608.22
2023-02-23T08:38:18.418Z,99612.03
2023-02-23T08:40:45.627Z,99603.53
2023-02-23T08:43:12.698Z,99609.41
2023-02-23T08:45:39.769Z,99612.50
2023-02-23T08:48:08.999Z,99615.22
2023-02-23T08:50:36.149Z,99615.03
2023-02-23T08:53:04.300Z,99617.03
2023-02-23T08:55:32.701Z,99618.94
2023-02-23T08:57:59.771Z,99613.59
2023-02-23T09:00:26.949Z,99624.44
2023-02-23T09:02:53.966Z,99612.84
2023-02-23T09:05:21.150Z,99615.00
2023-02-23T09:07:49.454Z,99611.50
2023-02-23T09:10:20.217Z,99614.06
2023-02-23T09:12:47.358Z,99606.88
2023-02-23T09:15:14.396Z,99611.03
2023-02-23T09:17:45.094Z,99609.81
2023-02-23T09:20:15.905Z,99599.47
2023-02-23T09:22:48.746Z,99610.03
2023-02-23T09:25:22.916Z,99613.16
2023-02-23T09:27:56.505Z,99610.25
2023-02-23T09:30:23.791Z,99617.22
2023-02-23T09:32:51.416Z,99610.38
2023-02-23T09:35:21.116Z,99603.50
2023-02-23T09:37:50.392Z,99609.69
2023-02-23T09:40:22.316Z,99596.44
2023-02-23T09:43:17.014Z,99598.91
2023-02-23T09:45:55.218Z,99596.16
2023-02-23T09:48:28.813Z,99592.09
2023-02-23T09:51:01.414Z,99595.41
2023-02-23T09:53:35.794Z,99595.84
2023-02-23T09:56:11.897Z,99598.06
2023-02-23T09:58:40.309Z,99604.72
2023-02-23T10:01:19.838Z,99593.19
2023-02-23T10:03:55.994Z,99593.94
2023-02-23T10:06:23.419Z,99581.59
2023-02-23T10:09:22.653Z,99576.28
2023-02-23T10:12:00.359Z,99580.00
2023-02-23T10:14:53.796Z,99575.38
2023-02-23T10:17:36.429Z,99575.25
2023-02-23T10:20:28.290Z,99573.97
2023-02-23T10:23:01.689Z,99579.91
2023-02-23T10:25:33.068Z,99575.25
2023-02-23T10:28:01.715Z,99580.53
2023-02-23T10:30:33.081Z,99572.88
2023-02-23T10:33:11.626Z,99573.78
2023-02-23T10:35:39.592Z,99573.28
2023-02-23T10:38:08.671Z,99572.41
2023-02-23T10:40:36.553Z,99574.84
2023-02-23T10:43:03.821Z,99568.75
2023-02-23T10:45:38.340Z,99576.75
2023-02-23T10:48:09.231Z,99567.34
2023-02-23T10:50:38.884Z,99570.88
2023-02-23T10:53:28.125Z,99576.63
2023-02-23T10:56:17.102Z,99582.47
2023-02-23T10:58:56.436Z,99585.75
2023-02-23T11:02:01.507Z,99583.56
2023-02-23T11:04:35.255Z,99584.19
2023-02-23T11:07:12.029Z,99573.28
2023-02-23T11:09:47.031Z,99571.63
2023-02-23T11:12:22.911Z,99566.53
2023-02-23T11:14:51.832Z,99572.81
2023-02-23T11:17:37.873Z,99574.06
2023-02-23T11:20:23.197Z,99569.91
2023-02-23T11:22:52.411Z,99568.16
2023-02-23T11:25:29.710Z,99566.06
2023-02-23T11:27:58.035Z,99565.31
2023-02-23T11:30:39.878Z,99558.97
2023-02-23T11:33:10.964Z,99555.19
2023-02-23T11:35:39.058Z,99567.38
2023-02-23T11:38:24.449Z,99562.25
2023-02-23T11:41:07.437Z,99570.59
2023-02-23T11:43:36.230Z,99574.34
2023-02-23T11:46:04.218Z,99574.22
2023-02-23T11:48:51.910Z,99573.47
2023-02-23T11:51:35.196Z,99572.38
2023-02-23T11:54:05.758Z,99567.88
2023-02-23T11:56:35.625Z,99571.25
2023-02-23T11:59:18.498Z,99564.66
2023-02-23T12:01:50.144Z,99562.84
2023-02-23T12:04:30.571Z,99565.06
2023-02-23T12:07:32.105Z,99557.03
2023-02-23T12:10:25.647Z,99570.28
2023-02-23T12:13:08.163Z,99569.66
2023-02-23T12:15:50.873Z,99570.66
2023-02-23T12:18:17.957Z,99567.44
2023-02-23T12:20:50.073Z,99570.50
2023-02-23T12:23:24.848Z,99570.72
2023-02-23T12:25:59.932Z,99565.81
2023-02-23T12:28:38.472Z,99574.38
2023-02-23T12:31:23.667Z,99566.44
2023-02-23T12:34:04.263Z,99566.44
2023-02-23T12:36:47.994Z,99571.44
2023-02-23T12:39:57.892Z,99566.38
2023-02-23T12:42:49.153Z,99572.59
2023-02-23T12:45:34.106Z,99572.25
2023-02-23T12:48:13.301Z,99570.78
2023-02-23T12:50:53.111Z,99574.97
2023-02-23T12:53:39.872Z,99577.59
2023-02-23T12:56:37.849Z,99583.63
2023-02-23T12:59:35.812Z,99583.09
2023-02-23T13:02:44.036Z,99571.75
2023-02-23T13:05:32.423Z,99575.75
2023-02-23T13:08:24.720Z,99573.50
2023-02-23T13:10:51.812Z,99573.78
2023-02-23T13:13:24.644Z,99574.94
2023-02-23T13:16:40.731Z,99579.09
2023-02-23T13:19:20.943Z,99580.56
2023-02-23T13:22:06.720Z,99576.59
2023-02-23T13:24:47.469Z,99575.88
2023-02-23T13:27:27.446Z,99581.59
2023-02-23T13:29:56.877Z,99578.53
2023-02-23T13:32:29.467Z,99579.34
2023-02-23T13:35:05.633Z,99581.25
2023-02-23T13:37:51.066Z,99583.50
2023-02-23T13:40:25.280Z,99581.91
2023-02-23T13:43:17.776Z,99583.69
2023-02-23T13:46:04.667Z,99584.81
2023-02-23T13:48:56.805Z,99589.41
2023-02-23T13:51:47.539Z,99584.38
2023-02-23T13:54:15.163Z,99586.22
2023-02-23T13:56:59.268Z,99582.84
2023-02-23T13:59:34.451Z,99584.06
2023-02-23T14:02:07.355Z,99582.69
2023-02-23T14:04:42.557Z,99591.44
2023-02-23T14:07:09.708Z,99579.03
2023-02-23T14:09:56.899Z,99584.25
2023-02-23T14:12:25.460Z,99580.25
2023-02-23T14:14:52.477Z,99573.25
2023-02-23T14:17:19.476Z,99579.59
2023-02-23T14:20:13.298Z,99582.88
2023-02-23T14:23:19.693Z,99576.63
2023-02-23T14:25:51.520Z,99575.31
2023-02-23T14:28:36.593Z,99565.22
2023-02-23T14:31:12.331Z,99568.28
2023-02-23T14:33:42.627Z,99560.91
2023-02-23T14:36:22.025Z,99560.34
2023-02-23T14:39:15.803Z,99560.97
2023-02-23T14:41:57.953Z,99560.41
2023-02-23T14:44:36.639Z,99559.28
2023-02-23T14:47:08.470Z,99561.03
2023-02-23T14:49:40.780Z,99559.50
2023-02-23T14:52:21.512Z,99562.28
2023-02-23T14:54:52.168Z,99557.91
2023-02-23T14:57:26.325Z,99554.53
2023-02-23T15:00:06.555Z,99535.13
2023-02-23T15:02:35.506Z,99541.19
2023-02-23T15:05:16.528Z,99539.66
2023-02-23T15:07:45.533Z,99548.13
2023-02-23T15:10:22.675Z,99554.19
2023-02-23T15:12:50.682Z,99552.22
2023-02-23T15:15:24.439Z,99548.22
2023-02-23T15:17:55.387Z,99550.59
2023-02-23T15:20:28.965Z,99555.22
2023-02-23T15:22:59.374Z,99551.44
2023-02-23T15:25:36.027Z,99561.13
2023-02-23T15:28:26.654Z,99558.34
2023-02-23T15:31:01.094Z,99552.13
2023-02-23T15:33:31.101Z,99564.22
2023-02-23T15:36:19.846Z,99553.22
2023-02-23T15:38:50.747Z,99547.91
2023-02-23T15:41:36.730Z,99555.84
2023-02-23T15:44:27.503Z,99559.69
2023-02-23T15:47:03.062Z,99552.78
2023-02-23T15:49:35.932Z,99557.56
2023-02-23T15:52:07.176Z,99561.28
2023-02-23T15:55:00.505Z,99553.47
2023-02-23T15:57:31.690Z,99550.09
2023-02-23T16:00:02.088Z,99556.16
2023-02-23T16:02:31.040Z,99549.09
2023-02-23T16:05:08.918Z,99543.03
2023-02-23T16:07:40.714Z,99534.72
2023-02-23T16:10:23.150Z,99546.56
2023-02-23T16:12:54.248Z,99530.94
2023-02-23T16:15:30.344Z,99535.81
2023-02-23T16:18:03.782Z,99531.94
2023-02-23T16:20:46.387Z,99531.94
2023-02-23T16:23:44.765Z,99531.75
2023-02-23T16:26:27.467Z,99525.53
2023-02-23T16:28:57.981Z,99521.59
2023-02-23T16:31:43.388Z,99521.84
2023-02-23T16:34:27.191Z,99511.56
2023-02-23T16:37:03.789Z,99504.22
2023-02-23T16:39:34.372Z,99506.31
2023-02-23T16:42:01.431Z,99505.41
2023-02-23T16:44:41.396Z,99509.19
2023-02-23T16:47:20.577Z,99508.84
2023-02-23T16:49:48.158Z,99507.16
2023-02-23T16:52:22.538Z,99505.22
2023-02-23T16:54:55.346Z,99504.09
2023-02-23T16:57:29.784Z,99494.31
2023-02-23T16:59:57.689Z,99495.50
2023-02-23T17:02:24.857Z,99499.47
2023-02-23T17:04:52.909Z,99502.91
2023-02-23T17:07:22.881Z,99508.97
2023-02-23T17:09:51.004Z,99502.69
2023-02-23T17:12:20.133Z,99500.72
2023-02-23T17:14:50.674Z,99508.00
2023-02-23T17:17:19.464Z,99502.84
2023-02-23T17:19:46.886Z,99501.78
2023-02-23T17:22:14.711Z,99509.06
2023-02-23T17:24:42.773Z,99511.69
2023-02-23T17:27:10.362Z,99508.66
2023-02-23T17:29:40.760Z,99507.19
2023-02-23T17:32:11.460Z,99505.94
2023-02-23T17:34:39.446Z,99501.59
2023-02-23T17:37:08.080Z,99498.88
2023-02-23T17:39:37.540Z,99503.94
2023-02-23T17:42:04.881Z,99501.59
2023-02-23T17:44:31.882Z,99506.06
2023-02-23T17:46:58.967Z,99498.22
2023-02-23T17:49:26.141Z,99496.72
2023-02-23T17:51:53.331Z,99500.38
2023-02-23T17:54:20.392Z,99494.50
2023-02-23T17:56:47.476Z,99497.94
2023-02-23T17:59:14.704Z,99495.25
2023-02-23T18:01:41.704Z,99493.34
2023-02-23T18:04:08.819Z,99493.44
2023-02-23T18:06:35.838Z,99495.03
2023-02-23T18:09:06.120Z,99480.91
2023-02-23T18:11:34.864Z,99483.50
2023-02-23T18:14:04.557Z,99481.91
2023-02-23T18:16:33.490Z,99480.78
2023-02-23T18:19:00.774Z,99477.75
2023-02-23T18:21:31.111Z,99480.19
2023-02-23T18:23:58.518Z,99477.53
2023-02-23T18:26:25.849Z,99475.63
2023-02-23T18:28:54.405Z,99471.66
2023-02-23T18:31:25.542Z,99460.91
2023-02-23T18:33:53.360Z,99461.03
2023-02-23T18:36:23.392Z,99463.53
2023-02-23T18:38:53.397Z,99455.97
2023-02-23T18:41:21.410Z,99453.56
2023-02-23T18:43:49.644Z,99453.94
2023-02-23T18:46:17.423Z,99459.66
2023-02-23T18:48:45.260Z,99454.63
2023-02-23T18:51:17.652Z,99453.09
2023-02-23T18:53:45.945Z,99449.28
2023-02-23T18:56:16.304Z,99452.56
2023-02-23T18:58:45.735Z,99443.25
2023-02-23T19:01:18.277Z,99448.00
2023-02-23T19:03:46.840Z,99453.91
2023-02-23T19:06:16.574Z,99444.47
2023-02-23T19:08:44.874Z,99441.88
2023-02-23T19:11:12.302Z,99448.50
2023-02-23T19:13:39.735Z,99435.53
2023-02-23T19:16:08.357Z,99439.09
2023-02-23T19:18:36.426Z,99442.03
2023-02-23T19:21:04.591Z,99433.81
2023-02-23T19:23:31.844Z,99420.16
2023-02-23T19:26:02.497Z,99426.03
2023-02-23T19:28:30.331Z,99435.63
2023-02-23T19:31:09.016Z,99423.31
2023-02-23T19:33:39.899Z,99426.69
2023-02-23T19:36:09.175Z,99421.63
2023-02-23T19:38:36.887Z,99421.63
2023-02-23T19:41:11.356Z,99420.69
2023-02-23T19:43:39.151Z,99420.34
2023-02-23T19:46:08.752Z,99420.53
2023-02-23T19:48:36.821Z,99419.97
2023-02-23T19:51:04.546Z,99416.97
2023-02-23T19:53:32.355Z,99418.50
2023-02-23T19:56:01.081Z,99411.84
2023-02-23T19:58:28.280Z,99409.34
2023-02-23T20:00:57.601Z,99405.88
2023-02-23T20:03:28.643Z,99400.94
2023-02-23T20:05:56.646Z,99410.72
2023-02-23T20:08:24.536Z,99406.44
2023-02-23T20:10:52.250Z,99407.75
2023-02-23T20:13:21.507Z,99405.59
2023-02-23T20:15:48.558Z,99396.03
2023-02-23T20:18:15.629Z,99404.59
2023-02-23T20:20:42.870Z,99391.47
2023-02-23T20:23:09.960Z,99377.47
2023-02-23T20:25:37.022Z,99382.69
2023-02-23T20:28:04.732Z,99374.47
2023-02-23T20:30:31.867Z,99377.91
2023-02-23T20:32:59.031Z,99377.91
2023-02-23T20:35:26.426Z,99367.94
2023-02-23T20:37:53.770Z,99363.38
2023-02-23T20:40:23.260Z,99371.84
2023-02-23T20:42:51.729Z,99374.00
2023-02-23T20:45:21.684Z,99374.09
2023-02-23T20:47:53.215Z,99377.81
2023-02-23T20:50:22.425Z,99373.38
2023-02-23T20:52:49.854Z,99370.94
2023-02-23T20:55:18.906Z,99361.97
2023-02-23T20:57:48.177Z,99369.06
2023-02-23T21:00:23.344Z,99360.13
2023-02-23T21:02:55.861Z,99367.00
2023-02-23T21:05:25.090Z,99353.97
2023-02-23T21:07:52.687Z,99361.41
2023-02-23T21:10:20.621Z,99351.91
2023-02-23T21:12:47.685Z,99348.28
2023-02-23T21:15:15.191Z,99351.72
2023-02-23T21:17:42.301Z,99355.81
2023-02-23T21:20:12.566Z,99351.81
2023-02-23T21:22:39.743Z,99349.69
2023-02-23T21:25:10.555Z,99346.94
2023-02-23T21:27:38.604Z,99344.06
2023-02-23T21:30:06.387Z,99333.75
2023-02-23T21:32:41.156Z,99337.53
2023-02-23T21:35:10.641Z,99343.81
2023-02-23T21:37:39.131Z,99329.69
2023-02-23T21:40:09.702Z,99323.38
2023-02-23T21:42:37.842Z,99322.06
2023-02-23T21:45:05.304Z,99318.53
2023-02-23T21:47:35.574Z,99318.88
2023-02-23T21:50:03.351Z,99313.84
2023-02-23T21:52:33.931Z,99320.72
2023-02-23T21:55:03.887Z,99319.25
2023-02-23T21:57:33.429Z,99321.59
2023-02-23T22:00:00.669Z,99325.75
2023-02-23T22:02:30.684Z,99309.63
2023-02-23T22:04:58.272Z,99311.59
2023-02-23T22:07:29.292Z,99311.59
2023-02-23T22:09:56.409Z,99307.47
2023-02-23T22:12:23.419Z,99309.50
2023-02-23T22:14:50.461Z,99294.16
2023-02-23T22:17:19.356Z,99300.88
2023-02-23T22:19:49.724Z,99297.13
2023-02-23T22:22:20.165Z,99294.22
2023-02-23T22:24:50.464Z,99283.06
2023-02-23T22:27:17.478Z,99280.44
2023-02-23T22:29:44.454Z,99283.53
2023-02-23T22:32:11.686Z,99274.00
2023-02-23T22:34:39.069Z,99273.31
2023-02-23T22:37:06.072Z,99270.91
2023-02-23T22:39:33.423Z,99278.53
2023-02-23T22:42:09.332Z,99269.22
2023-02-23T22:44:39.086Z,99274.81
2023-02-23T22:47:07.497Z,99263.97
2023-02-23T22:49:34.782Z,99265.47
2023-02-23T22:52:01.829Z,99259.09
2023-02-23T22:54:29.198Z,99255.34
2023-02-23T22:56:56.170Z,99251.63
2023-02-23T22:59:23.228Z,99247.25
2023-02-23T23:01:50.657Z,99247.38
2023-02-23T23:04:19.654Z,99250.31
2023-02-23T23:06:46.717Z,99241.59
2023-02-23T23:09:15.038Z,99240.47
2023-02-23T23:11:42.843Z,99235.91
2023-02-23T23:14:14.064Z,99234.31
2023-02-23T23:16:52.118Z,99233.06
2023-02-23T23:19:24.492Z,99232.25
2023-02-23T23:21:55.455Z,99232.44
2023-02-23T23:24:24.503Z,99225.13
2023-02-23T23:26:59.549Z,99212.56
2023-02-23T23:29:30.034Z,99209.63
2023-02-23T23:31:57.469Z,99212.44
2023-02-23T23:34:25.430Z,99208.72
2023-02-23T23:36:55.626Z,99198.47
2023-02-23T23:39:26.088Z,99191.88
2023-02-23T23:41:54.125Z,99195.84
2023-02-23T23:44:23.928Z,99185.59
2023-02-23T23:46:51.194Z,99189.78
2023-02-23T23:49:21.256Z,99181.44
2023-02-23T23:51:50.917Z,99182.47
2023-02-23T23:54:24.395Z,99177.22
2023-02-23T23:56:51.521Z,99180.38
2023-02-23T23:59:21.549Z,99187.06
